sensor_id;sensor_type;location;lat;lon;timestamp;P1;durP1;ratioP1;P2;durP2;ratioP2
70733;SDS011;58320;48.804;9.252;2024-03-23T04:03:21;7.95;;;3.90;;
70733;SDS011;58320;48.804;9.252;2024-03-23T04:05:51;8.38;;;3.65;;
70733;SDS011;58320;48.804;9.252;2024-03-23T04:08:18;5.57;;;3.27;;
70733;SDS011;58320;48.804;9.252;2024-03-23T04:10:44;7.45;;;3.70;;
70733;SDS011;58320;48.804;9.252;2024-03-23T04:13:10;7.38;;;3.40;;
70733;SDS011;58320;48.804;9.252;2024-03-23T04:15:37;5.70;;;3.53;;
70733;SDS011;58320;48.804;9.252;2024-03-23T04:18:03;8.80;;;3.57;;
70733;SDS011;58320;48.804;9.252;2024-03-23T04:20:29;4.90;;;3.00;;
70733;SDS011;58320;48.804;9.252;2024-03-23T04:22:54;8.05;;;3.50;;
70733;SDS011;58320;48.804;9.252;2024-03-23T04:25:20;6.37;;;2.83;;
70733;SDS011;58320;48.804;9.252;2024-03-23T04:27:46;6.43;;;3.15;;
70733;SDS011;58320;48.804;9.252;2024-03-23T04:30:11;7.70;;;4.03;;
70733;SDS011;58320;48.804;9.252;2024-03-23T04:32:37;7.78;;;4.55;;
70733;SDS011;58320;48.804;9.252;2024-03-23T04:35:03;10.85;;;4.70;;
70733;SDS011;58320;48.804;9.252;2024-03-23T04:37:34;7.80;;;4.67;;
70733;SDS011;58320;48.804;9.252;2024-03-23T04:40:07;7.75;;;4.20;;
70733;SDS011;58320;48.804;9.252;2024-03-23T04:42:33;7.18;;;4.22;;
70733;SDS011;58320;48.804;9.252;2024-03-23T04:44:59;9.38;;;4.20;;
70733;SDS011;58320;48.804;9.252;2024-03-23T04:47:25;9.55;;;4.63;;
70733;SDS011;58320;48.804;9.252;2024-03-23T04:49:51;9.33;;;5.00;;
70733;SDS011;58320;48.804;9.252;2024-03-23T04:52:17;11.25;;;5.40;;
70733;SDS011;58320;48.804;9.252;2024-03-23T04:54:43;7.93;;;5.22;;
70733;SDS011;58320;48.804;9.252;2024-03-23T04:57:08;7.77;;;5.47;;
70733;SDS011;58320;48.804;9.252;2024-03-23T04:59:34;11.20;;;6.30;;
70733;SDS011;58320;48.804;9.252;2024-03-23T05:02:00;9.37;;;6.20;;
70733;SDS011;58320;48.804;9.252;2024-03-23T05:04:26;11.50;;;7.18;;
70733;SDS011;58320;48.804;9.252;2024-03-23T05:06:52;13.35;;;8.32;;
70733;SDS011;58320;48.804;9.252;2024-03-23T05:09:18;17.90;;;9.30;;
70733;SDS011;58320;48.804;9.252;2024-03-23T05:11:45;18.38;;;10.27;;
70733;SDS011;58320;48.804;9.252;2024-03-23T05:14:13;19.42;;;11.63;;
70733;SDS011;58320;48.804;9.252;2024-03-23T05:16:39;23.00;;;12.68;;
70733;SDS011;58320;48.804;9.252;2024-03-23T05:19:05;24.37;;;12.70;;
70733;SDS011;58320;48.804;9.252;2024-03-23T05:21:31;23.13;;;12.25;;
70733;SDS011;58320;48.804;9.252;2024-03-23T05:23:57;21.95;;;12.77;;
70733;SDS011;58320;48.804;9.252;2024-03-23T05:26:22;26.70;;;13.77;;
70733;SDS011;58320;48.804;9.252;2024-03-23T05:28:48;24.20;;;13.77;;
70733;SDS011;58320;48.804;9.252;2024-03-23T05:31:26;24.27;;;13.13;;
70733;SDS011;58320;48.804;9.252;2024-03-23T05:33:54;26.77;;;12.75;;
70733;SDS011;58320;48.804;9.252;2024-03-23T05:36:20;24.42;;;13.50;;
70733;SDS011;58320;48.804;9.252;2024-03-23T05:38:47;24.27;;;13.73;;
70733;SDS011;58320;48.804;9.252;2024-03-23T05:41:13;30.52;;;13.95;;
70733;SDS011;58320;48.804;9.252;2024-03-23T05:43:39;24.38;;;13.48;;
70733;SDS011;58320;48.804;9.252;2024-03-23T05:46:04;27.40;;;13.03;;
70733;SDS011;58320;48.804;9.252;2024-03-23T05:48:30;24.35;;;12.32;;
70733;SDS011;58320;48.804;9.252;2024-03-23T05:50:56;22.83;;;12.40;;
70733;SDS011;58320;48.804;9.252;2024-03-23T05:53:23;23.70;;;12.55;;
70733;SDS011;58320;48.804;9.252;2024-03-23T05:55:49;20.88;;;12.07;;
70733;SDS011;58320;48.804;9.252;2024-03-23T05:58:18;20.13;;;10.80;;
70733;SDS011;58320;48.804;9.252;2024-03-23T06:00:45;17.35;;;9.70;;
70733;SDS011;58320;48.804;9.252;2024-03-23T06:03:10;17.52;;;9.05;;
70733;SDS011;58320;48.804;9.252;2024-03-23T06:05:37;13.15;;;6.97;;
70733;SDS011;58320;48.804;9.252;2024-03-23T06:08:03;11.40;;;5.97;;
70733;SDS011;58320;48.804;9.252;2024-03-23T06:10:29;8.32;;;4.10;;
70733;SDS011;58320;48.804;9.252;2024-03-23T06:12:55;7.28;;;3.70;;
70733;SDS011;58320;48.804;9.252;2024-03-23T06:15:21;6.70;;;3.23;;
70733;SDS011;58320;48.804;9.252;2024-03-23T06:17:47;6.97;;;3.58;;
70733;SDS011;58320;48.804;9.252;2024-03-23T06:20:13;6.50;;;2.80;;
70733;SDS011;58320;48.804;9.252;2024-03-23T06:22:39;5.88;;;3.10;;
70733;SDS011;58320;48.804;9.252;2024-03-23T06:25:05;5.33;;;2.83;;
70733;SDS011;58320;48.804;9.252;2024-03-23T06:27:32;5.88;;;3.00;;
70733;SDS011;58320;48.804;9.252;2024-03-23T06:30:01;4.93;;;2.63;;
70733;SDS011;58320;48.804;9.252;2024-03-23T06:32:27;5.28;;;2.60;;
70733;SDS011;58320;48.804;9.252;2024-03-23T06:34:56;5.70;;;2.47;;
70733;SDS011;58320;48.804;9.252;2024-03-23T06:37:21;3.50;;;1.70;;
70733;SDS011;58320;48.804;9.252;2024-03-23T06:39:47;5.38;;;2.30;;
70733;SDS011;58320;48.804;9.252;2024-03-23T06:42:13;3.70;;;1.70;;
70733;SDS011;58320;48.804;9.252;2024-03-23T06:44:38;3.50;;;1.60;;
70733;SDS011;58320;48.804;9.252;2024-03-23T06:47:05;3.73;;;1.90;;
70733;SDS011;58320;48.804;9.252;2024-03-23T06:49:30;3.45;;;1.95;;
70733;SDS011;58320;48.804;9.252;2024-03-23T06:51:56;3.77;;;1.97;;
70733;SDS011;58320;48.804;9.252;2024-03-23T06:54:22;3.10;;;1.40;;
70733;SDS011;58320;48.804;9.252;2024-03-23T06:56:49;2.90;;;1.20;;
70733;SDS011;58320;48.804;9.252;2024-03-23T06:59:15;2.80;;;1.30;;
70733;SDS011;58320;48.804;9.252;2024-03-23T07:01:40;4.55;;;1.50;;
70733;SDS011;58320;48.804;9.252;2024-03-23T07:04:07;2.70;;;1.25;;
70733;SDS011;58320;48.804;9.252;2024-03-23T07:06:33;2.50;;;1.13;;
70733;SDS011;58320;48.804;9.252;2024-03-23T07:08:59;1.80;;;0.70;;
70733;SDS011;58320;48.804;9.252;2024-03-23T07:11:24;2.47;;;1.00;;
70733;SDS011;58320;48.804;9.252;2024-03-23T07:13:52;2.00;;;1.00;;
70733;SDS011;58320;48.804;9.252;2024-03-23T07:16:20;2.20;;;1.20;;
70733;SDS011;58320;48.804;9.252;2024-03-23T07:18:46;2.05;;;0.93;;
70733;SDS011;58320;48.804;9.252;2024-03-23T07:21:12;1.80;;;0.70;;
70733;SDS011;58320;48.804;9.252;2024-03-23T07:23:41;2.10;;;0.93;;
70733;SDS011;58320;48.804;9.252;2024-03-23T07:26:10;1.55;;;0.70;;
70733;SDS011;58320;48.804;9.252;2024-03-23T07:28:35;2.00;;;1.00;;
70733;SDS011;58320;48.804;9.252;2024-03-23T07:31:03;1.90;;;0.80;;
70733;SDS011;58320;48.804;9.252;2024-03-23T07:33:30;1.80;;;0.90;;
70733;SDS011;58320;48.804;9.252;2024-03-23T07:35:57;2.83;;;1.00;;
70733;SDS011;58320;48.804;9.252;2024-03-23T07:38:25;1.67;;;0.75;;
70733;SDS011;58320;48.804;9.252;2024-03-23T07:41:01;2.17;;;1.02;;
70733;SDS011;58320;48.804;9.252;2024-03-23T07:43:34;1.83;;;0.90;;
70733;SDS011;58320;48.804;9.252;2024-03-23T07:46:02;2.20;;;1.02;;
70733;SDS011;58320;48.804;9.252;2024-03-23T07:48:31;2.10;;;1.10;;
70733;SDS011;58320;48.804;9.252;2024-03-23T07:53:31;2.50;;;1.10;;
70733;SDS011;58320;48.804;9.252;2024-03-23T07:56:02;1.60;;;0.70;;
70733;SDS011;58320;48.804;9.252;2024-03-23T07:58:30;1.98;;;0.90;;
70733;SDS011;58320;48.804;9.252;2024-03-23T08:00:56;2.10;;;0.98;;
70733;SDS011;58320;48.804;9.252;2024-03-23T08:03:29;1.98;;;1.02;;
70733;SDS011;58320;48.804;9.252;2024-03-23T08:05:55;1.80;;;0.80;;
70733;SDS011;58320;48.804;9.252;2024-03-23T08:08:20;1.65;;;0.80;;
70733;SDS011;58320;48.804;9.252;2024-03-23T08:10:52;2.23;;;1.03;;
70733;SDS011;58320;48.804;9.252;2024-03-23T08:13:18;2.25;;;1.20;;
70733;SDS011;58320;48.804;9.252;2024-03-23T08:15:44;1.88;;;0.88;;
70733;SDS011;58320;48.804;9.252;2024-03-23T08:18:11;2.50;;;1.23;;
70733;SDS011;58320;48.804;9.252;2024-03-23T08:20:37;1.80;;;0.80;;
70733;SDS011;58320;48.804;9.252;2024-03-23T08:23:04;2.33;;;1.17;;
70733;SDS011;58320;48.804;9.252;2024-03-23T08:25:31;2.33;;;1.00;;
70733;SDS011;58320;48.804;9.252;2024-03-23T08:27:57;2.75;;;1.27;;
70733;SDS011;58320;48.804;9.252;2024-03-23T08:30:23;3.23;;;1.10;;
70733;SDS011;58320;48.804;9.252;2024-03-23T08:32:49;2.80;;;1.58;;
70733;SDS011;58320;48.804;9.252;2024-03-23T08:35:15;2.40;;;1.33;;
70733;SDS011;58320;48.804;9.252;2024-03-23T08:37:41;2.63;;;1.37;;
70733;SDS011;58320;48.804;9.252;2024-03-23T08:40:06;2.67;;;1.10;;
70733;SDS011;58320;48.804;9.252;2024-03-23T08:42:33;2.28;;;1.00;;
70733;SDS011;58320;48.804;9.252;2024-03-23T08:45:00;2.90;;;1.30;;
70733;SDS011;58320;48.804;9.252;2024-03-23T08:47:25;2.37;;;1.00;;
70733;SDS011;58320;48.804;9.252;2024-03-23T08:49:51;3.70;;;1.08;;
70733;SDS011;58320;48.804;9.252;2024-03-23T08:52:17;3.47;;;1.00;;
70733;SDS011;58320;48.804;9.252;2024-03-23T08:54:43;2.30;;;1.10;;
70733;SDS011;58320;48.804;9.252;2024-03-23T08:57:09;3.00;;;1.30;;
70733;SDS011;58320;48.804;9.252;2024-03-23T08:59:34;5.95;;;2.40;;
70733;SDS011;58320;48.804;9.252;2024-03-23T09:02:00;6.05;;;2.35;;
70733;SDS011;58320;48.804;9.252;2024-03-23T09:04:26;7.03;;;2.40;;
70733;SDS011;58320;48.804;9.252;2024-03-23T09:06:52;7.18;;;2.83;;
70733;SDS011;58320;48.804;9.252;2024-03-23T09:09:17;5.60;;;2.40;;
70733;SDS011;58320;48.804;9.252;2024-03-23T09:11:44;5.25;;;2.20;;
70733;SDS011;58320;48.804;9.252;2024-03-23T09:14:10;9.77;;;2.70;;
70733;SDS011;58320;48.804;9.252;2024-03-23T09:16:36;7.03;;;2.40;;
70733;SDS011;58320;48.804;9.252;2024-03-23T09:19:02;7.05;;;2.78;;
70733;SDS011;58320;48.804;9.252;2024-03-23T09:21:28;5.95;;;2.53;;
70733;SDS011;58320;48.804;9.252;2024-03-23T09:23:53;9.90;;;2.80;;
70733;SDS011;58320;48.804;9.252;2024-03-23T09:26:19;9.15;;;2.90;;
70733;SDS011;58320;48.804;9.252;2024-03-23T09:28:47;9.48;;;3.28;;
70733;SDS011;58320;48.804;9.252;2024-03-23T09:31:16;5.53;;;2.40;;
70733;SDS011;58320;48.804;9.252;2024-03-23T09:33:42;5.30;;;2.35;;
70733;SDS011;58320;48.804;9.252;2024-03-23T09:36:08;5.97;;;2.33;;
70733;SDS011;58320;48.804;9.252;2024-03-23T09:38:34;6.43;;;2.67;;
70733;SDS011;58320;48.804;9.252;2024-03-23T09:41:00;5.57;;;2.55;;
70733;SDS011;58320;48.804;9.252;2024-03-23T09:43:26;6.50;;;2.60;;
70733;SDS011;58320;48.804;9.252;2024-03-23T09:45:52;6.35;;;2.40;;
70733;SDS011;58320;48.804;9.252;2024-03-23T09:48:18;7.05;;;3.15;;
70733;SDS011;58320;48.804;9.252;2024-03-23T09:50:44;5.03;;;2.63;;
70733;SDS011;58320;48.804;9.252;2024-03-23T09:53:11;6.32;;;2.72;;
70733;SDS011;58320;48.804;9.252;2024-03-23T09:55:42;5.88;;;2.47;;
70733;SDS011;58320;48.804;9.252;2024-03-23T09:58:13;6.63;;;2.47;;
70733;SDS011;58320;48.804;9.252;2024-03-23T10:00:43;6.38;;;2.63;;
70733;SDS011;58320;48.804;9.252;2024-03-23T10:03:09;6.23;;;2.47;;
70733;SDS011;58320;48.804;9.252;2024-03-23T10:05:36;6.97;;;2.60;;
70733;SDS011;58320;48.804;9.252;2024-03-23T10:10:43;6.97;;;2.78;;
70733;SDS011;58320;48.804;9.252;2024-03-23T10:13:10;6.20;;;2.80;;
70733;SDS011;58320;48.804;9.252;2024-03-23T10:15:39;8.77;;;2.87;;
70733;SDS011;58320;48.804;9.252;2024-03-23T10:18:17;6.82;;;2.45;;
70733;SDS011;58320;48.804;9.252;2024-03-23T10:20:50;6.35;;;2.78;;
70733;SDS011;58320;48.804;9.252;2024-03-23T10:23:30;7.70;;;2.80;;
70733;SDS011;58320;48.804;9.252;2024-03-23T10:28:55;7.00;;;2.70;;
70733;SDS011;58320;48.804;9.252;2024-03-23T10:31:26;6.50;;;2.90;;
70733;SDS011;58320;48.804;9.252;2024-03-23T10:33:53;9.15;;;3.40;;
70733;SDS011;58320;48.804;9.252;2024-03-23T10:36:20;9.07;;;2.78;;
70733;SDS011;58320;48.804;9.252;2024-03-23T10:38:51;5.97;;;2.87;;
70733;SDS011;58320;48.804;9.252;2024-03-23T10:41:18;6.13;;;3.03;;
70733;SDS011;58320;48.804;9.252;2024-03-23T10:43:47;7.63;;;2.72;;
70733;SDS011;58320;48.804;9.252;2024-03-23T10:46:14;7.18;;;2.78;;
70733;SDS011;58320;48.804;9.252;2024-03-23T10:48:40;7.88;;;2.67;;
70733;SDS011;58320;48.804;9.252;2024-03-23T10:51:08;7.30;;;2.33;;
70733;SDS011;58320;48.804;9.252;2024-03-23T10:53:35;7.55;;;2.75;;
70733;SDS011;58320;48.804;9.252;2024-03-23T10:56:02;7.32;;;2.78;;
70733;SDS011;58320;48.804;9.252;2024-03-23T11:01:03;6.63;;;3.17;;
70733;SDS011;58320;48.804;9.252;2024-03-23T11:03:29;11.07;;;3.57;;
70733;SDS011;58320;48.804;9.252;2024-03-23T11:06:03;10.15;;;4.00;;
70733;SDS011;58320;48.804;9.252;2024-03-23T11:11:19;11.75;;;4.43;;
70733;SDS011;58320;48.804;9.252;2024-03-23T11:13:50;8.73;;;3.53;;
70733;SDS011;58320;48.804;9.252;2024-03-23T11:22:02;9.85;;;3.05;;
70733;SDS011;58320;48.804;9.252;2024-03-23T11:24:30;7.72;;;3.38;;
70733;SDS011;58320;48.804;9.252;2024-03-23T11:26:56;9.87;;;3.00;;
70733;SDS011;58320;48.804;9.252;2024-03-23T11:29:26;6.72;;;3.10;;
70733;SDS011;58320;48.804;9.252;2024-03-23T11:31:54;5.60;;;2.83;;
70733;SDS011;58320;48.804;9.252;2024-03-23T11:34:20;5.63;;;2.63;;
70733;SDS011;58320;48.804;9.252;2024-03-23T11:36:47;6.22;;;2.85;;
70733;SDS011;58320;48.804;9.252;2024-03-23T11:39:16;5.20;;;2.73;;
70733;SDS011;58320;48.804;9.252;2024-03-23T11:44:14;6.80;;;3.25;;
70733;SDS011;58320;48.804;9.252;2024-03-23T11:46:41;4.90;;;2.20;;
70733;SDS011;58320;48.804;9.252;2024-03-23T11:49:19;5.93;;;2.53;;
70733;SDS011;58320;48.804;9.252;2024-03-23T11:51:54;5.10;;;2.53;;
70733;SDS011;58320;48.804;9.252;2024-03-23T11:54:21;5.70;;;2.15;;
70733;SDS011;58320;48.804;9.252;2024-03-23T11:56:56;4.43;;;2.08;;
70733;SDS011;58320;48.804;9.252;2024-03-23T12:02:12;4.83;;;1.83;;
70733;SDS011;58320;48.804;9.252;2024-03-23T12:04:41;4.07;;;1.75;;
70733;SDS011;58320;48.804;9.252;2024-03-23T12:07:14;3.40;;;1.58;;
70733;SDS011;58320;48.804;9.252;2024-03-23T12:09:45;5.68;;;1.95;;
70733;SDS011;58320;48.804;9.252;2024-03-23T12:12:15;7.20;;;1.77;;
70733;SDS011;58320;48.804;9.252;2024-03-23T12:14:43;5.07;;;1.47;;
70733;SDS011;58320;48.804;9.252;2024-03-23T12:17:10;6.28;;;1.98;;
70733;SDS011;58320;48.804;9.252;2024-03-23T12:19:38;4.22;;;1.80;;
70733;SDS011;58320;48.804;9.252;2024-03-23T12:22:05;3.83;;;1.83;;
70733;SDS011;58320;48.804;9.252;2024-03-23T12:24:31;4.35;;;1.55;;
70733;SDS011;58320;48.804;9.252;2024-03-23T12:26:59;5.80;;;1.97;;
70733;SDS011;58320;48.804;9.252;2024-03-23T12:29:32;5.60;;;1.73;;
70733;SDS011;58320;48.804;9.252;2024-03-23T12:32:01;4.95;;;1.90;;
70733;SDS011;58320;48.804;9.252;2024-03-23T12:34:28;5.47;;;1.70;;
70733;SDS011;58320;48.804;9.252;2024-03-23T12:36:55;5.83;;;1.50;;
70733;SDS011;58320;48.804;9.252;2024-03-23T12:39:21;6.20;;;1.70;;
70733;SDS011;58320;48.804;9.252;2024-03-23T12:41:47;6.85;;;2.05;;
70733;SDS011;58320;48.804;9.252;2024-03-23T12:44:17;7.17;;;1.60;;
70733;SDS011;58320;48.804;9.252;2024-03-23T12:46:43;5.32;;;1.85;;
70733;SDS011;58320;48.804;9.252;2024-03-23T12:49:09;6.88;;;2.05;;
70733;SDS011;58320;48.804;9.252;2024-03-23T12:51:36;7.97;;;2.05;;
70733;SDS011;58320;48.804;9.252;2024-03-23T12:54:02;7.35;;;2.10;;
70733;SDS011;58320;48.804;9.252;2024-03-23T12:56:28;6.43;;;1.80;;
70733;SDS011;58320;48.804;9.252;2024-03-23T12:58:54;6.30;;;1.90;;
70733;SDS011;58320;48.804;9.252;2024-03-23T13:01:22;6.82;;;1.88;;
70733;SDS011;58320;48.804;9.252;2024-03-23T13:03:51;6.97;;;2.25;;
70733;SDS011;58320;48.804;9.252;2024-03-23T13:06:17;6.03;;;2.00;;
70733;SDS011;58320;48.804;9.252;2024-03-23T13:08:44;6.45;;;1.90;;
70733;SDS011;58320;48.804;9.252;2024-03-23T13:11:10;5.30;;;2.00;;
70733;SDS011;58320;48.804;9.252;2024-03-23T13:13:37;5.45;;;1.60;;
70733;SDS011;58320;48.804;9.252;2024-03-23T13:16:03;6.50;;;1.95;;
70733;SDS011;58320;48.804;9.252;2024-03-23T13:18:31;4.27;;;1.60;;
70733;SDS011;58320;48.804;9.252;2024-03-23T13:20:57;4.75;;;2.13;;
70733;SDS011;58320;48.804;9.252;2024-03-23T13:23:23;8.45;;;1.88;;
70733;SDS011;58320;48.804;9.252;2024-03-23T13:25:52;5.97;;;2.13;;
70733;SDS011;58320;48.804;9.252;2024-03-23T13:28:20;7.30;;;2.15;;
70733;SDS011;58320;48.804;9.252;2024-03-23T13:30:50;9.53;;;2.73;;
70733;SDS011;58320;48.804;9.252;2024-03-23T13:33:20;6.22;;;1.98;;
70733;SDS011;58320;48.804;9.252;2024-03-23T13:35:50;7.78;;;2.10;;
70733;SDS011;58320;48.804;9.252;2024-03-23T13:38:20;4.55;;;1.50;;
70733;SDS011;58320;48.804;9.252;2024-03-23T13:40:52;4.35;;;1.90;;
70733;SDS011;58320;48.804;9.252;2024-03-23T13:43:23;5.13;;;1.60;;
70733;SDS011;58320;48.804;9.252;2024-03-23T13:45:53;5.63;;;1.70;;
70733;SDS011;58320;48.804;9.252;2024-03-23T13:48:24;5.10;;;2.05;;
70733;SDS011;58320;48.804;9.252;2024-03-23T13:50:58;4.45;;;1.30;;
70733;SDS011;58320;48.804;9.252;2024-03-23T13:53:30;3.72;;;1.38;;
70733;SDS011;58320;48.804;9.252;2024-03-23T13:55:59;6.13;;;2.03;;
70733;SDS011;58320;48.804;9.252;2024-03-23T13:58:25;4.80;;;1.30;;
70733;SDS011;58320;48.804;9.252;2024-03-23T14:00:51;5.20;;;2.00;;
70733;SDS011;58320;48.804;9.252;2024-03-23T14:03:17;3.95;;;1.50;;
70733;SDS011;58320;48.804;9.252;2024-03-23T14:05:43;3.37;;;1.50;;
70733;SDS011;58320;48.804;9.252;2024-03-23T14:08:09;3.95;;;1.50;;
70733;SDS011;58320;48.804;9.252;2024-03-23T14:10:36;5.70;;;1.33;;
70733;SDS011;58320;48.804;9.252;2024-03-23T14:13:06;6.43;;;2.45;;
70733;SDS011;58320;48.804;9.252;2024-03-23T14:15:31;4.83;;;1.60;;
70733;SDS011;58320;48.804;9.252;2024-03-23T14:17:57;4.55;;;1.40;;
70733;SDS011;58320;48.804;9.252;2024-03-23T14:20:24;3.45;;;1.73;;
70733;SDS011;58320;48.804;9.252;2024-03-23T14:22:50;8.27;;;1.70;;
70733;SDS011;58320;48.804;9.252;2024-03-23T14:25:16;4.13;;;1.50;;
70733;SDS011;58320;48.804;9.252;2024-03-23T14:27:45;3.88;;;1.80;;
70733;SDS011;58320;48.804;9.252;2024-03-23T14:30:11;4.50;;;1.50;;
70733;SDS011;58320;48.804;9.252;2024-03-23T14:32:38;5.43;;;1.77;;
70733;SDS011;58320;48.804;9.252;2024-03-23T14:35:05;3.07;;;1.23;;
70733;SDS011;58320;48.804;9.252;2024-03-23T14:37:35;2.95;;;1.67;;
70733;SDS011;58320;48.804;9.252;2024-03-23T14:40:02;5.38;;;1.70;;
70733;SDS011;58320;48.804;9.252;2024-03-23T14:42:29;4.20;;;1.23;;
70733;SDS011;58320;48.804;9.252;2024-03-23T14:44:57;2.38;;;1.20;;
70733;SDS011;58320;48.804;9.252;2024-03-23T14:47:23;2.73;;;1.10;;
70733;SDS011;58320;48.804;9.252;2024-03-23T14:49:49;3.30;;;1.45;;
70733;SDS011;58320;48.804;9.252;2024-03-23T14:52:19;3.17;;;1.33;;
70733;SDS011;58320;48.804;9.252;2024-03-23T14:54:45;3.30;;;1.30;;
70733;SDS011;58320;48.804;9.252;2024-03-23T14:57:11;2.90;;;1.27;;
70733;SDS011;58320;48.804;9.252;2024-03-23T14:59:37;4.85;;;1.38;;
70733;SDS011;58320;48.804;9.252;2024-03-23T15:02:09;2.90;;;1.40;;
70733;SDS011;58320;48.804;9.252;2024-03-23T15:04:37;3.92;;;1.45;;
70733;SDS011;58320;48.804;9.252;2024-03-23T15:07:05;5.50;;;1.33;;
70733;SDS011;58320;48.804;9.252;2024-03-23T15:09:31;3.95;;;1.50;;
70733;SDS011;58320;48.804;9.252;2024-03-23T15:11:57;4.53;;;1.83;;
70733;SDS011;58320;48.804;9.252;2024-03-23T15:14:23;4.63;;;1.63;;
70733;SDS011;58320;48.804;9.252;2024-03-23T15:16:49;4.03;;;1.42;;
70733;SDS011;58320;48.804;9.252;2024-03-23T15:19:16;3.72;;;1.67;;
70733;SDS011;58320;48.804;9.252;2024-03-23T15:21:42;4.20;;;1.40;;
70733;SDS011;58320;48.804;9.252;2024-03-23T15:24:08;4.63;;;1.00;;
70733;SDS011;58320;48.804;9.252;2024-03-23T15:26:37;3.20;;;1.20;;
70733;SDS011;58320;48.804;9.252;2024-03-23T15:29:03;3.75;;;1.10;;
70733;SDS011;58320;48.804;9.252;2024-03-23T15:31:36;3.90;;;1.40;;
70733;SDS011;58320;48.804;9.252;2024-03-23T15:34:02;2.53;;;1.10;;
70733;SDS011;58320;48.804;9.252;2024-03-23T15:36:29;4.43;;;1.55;;
70733;SDS011;58320;48.804;9.252;2024-03-23T15:38:54;2.20;;;1.00;;
70733;SDS011;58320;48.804;9.252;2024-03-23T15:41:20;5.13;;;1.50;;
70733;SDS011;58320;48.804;9.252;2024-03-23T15:43:48;2.60;;;0.80;;
70733;SDS011;58320;48.804;9.252;2024-03-23T15:46:14;3.28;;;1.05;;
70733;SDS011;58320;48.804;9.252;2024-03-23T15:48:40;3.20;;;1.20;;
70733;SDS011;58320;48.804;9.252;2024-03-23T15:51:11;3.60;;;1.08;;
70733;SDS011;58320;48.804;9.252;2024-03-23T15:53:37;3.78;;;1.00;;
70733;SDS011;58320;48.804;9.252;2024-03-23T15:56:03;2.43;;;0.80;;
70733;SDS011;58320;48.804;9.252;2024-03-23T15:58:30;3.13;;;1.25;;
70733;SDS011;58320;48.804;9.252;2024-03-23T16:01:08;3.42;;;1.30;;
70733;SDS011;58320;48.804;9.252;2024-03-23T16:03:35;2.88;;;0.85;;
70733;SDS011;58320;48.804;9.252;2024-03-23T16:06:03;3.33;;;1.10;;
70733;SDS011;58320;48.804;9.252;2024-03-23T16:08:30;3.43;;;1.20;;
70733;SDS011;58320;48.804;9.252;2024-03-23T16:11:00;6.22;;;1.35;;
70733;SDS011;58320;48.804;9.252;2024-03-23T16:13:27;3.60;;;1.75;;
70733;SDS011;58320;48.804;9.252;2024-03-23T16:15:56;5.22;;;1.10;;
70733;SDS011;58320;48.804;9.252;2024-03-23T16:18:23;2.70;;;1.20;;
70733;SDS011;58320;48.804;9.252;2024-03-23T16:20:53;2.77;;;0.80;;
70733;SDS011;58320;48.804;9.252;2024-03-23T16:23:18;3.70;;;1.10;;
70733;SDS011;58320;48.804;9.252;2024-03-23T16:25:48;4.00;;;1.20;;
70733;SDS011;58320;48.804;9.252;2024-03-23T16:28:27;3.33;;;1.00;;
70733;SDS011;58320;48.804;9.252;2024-03-23T16:30:58;3.05;;;1.20;;
70733;SDS011;58320;48.804;9.252;2024-03-23T16:33:24;3.57;;;1.03;;
70733;SDS011;58320;48.804;9.252;2024-03-23T16:35:54;3.28;;;1.10;;
70733;SDS011;58320;48.804;9.252;2024-03-23T16:38:27;2.78;;;1.20;;
70733;SDS011;58320;48.804;9.252;2024-03-23T16:40:57;2.60;;;1.15;;
70733;SDS011;58320;48.804;9.252;2024-03-23T16:43:23;2.47;;;0.93;;
70733;SDS011;58320;48.804;9.252;2024-03-23T16:45:58;2.87;;;1.00;;
70733;SDS011;58320;48.804;9.252;2024-03-23T16:48:37;3.03;;;1.20;;
70733;SDS011;58320;48.804;9.252;2024-03-23T16:51:10;4.13;;;0.88;;
70733;SDS011;58320;48.804;9.252;2024-03-23T16:53:37;2.40;;;1.00;;
70733;SDS011;58320;48.804;9.252;2024-03-23T16:56:05;3.22;;;1.08;;
70733;SDS011;58320;48.804;9.252;2024-03-23T16:58:37;4.40;;;1.53;;
70733;SDS011;58320;48.804;9.252;2024-03-23T17:01:07;3.80;;;1.55;;
70733;SDS011;58320;48.804;9.252;2024-03-23T17:03:43;4.28;;;1.50;;
70733;SDS011;58320;48.804;9.252;2024-03-23T17:06:17;3.10;;;1.45;;
70733;SDS011;58320;48.804;9.252;2024-03-23T17:08:44;3.75;;;1.50;;
70733;SDS011;58320;48.804;9.252;2024-03-23T17:11:14;3.30;;;1.77;;
70733;SDS011;58320;48.804;9.252;2024-03-23T17:13:42;2.67;;;1.30;;
70733;SDS011;58320;48.804;9.252;2024-03-23T17:16:07;5.13;;;1.73;;
70733;SDS011;58320;48.804;9.252;2024-03-23T17:18:33;2.13;;;1.00;;
70733;SDS011;58320;48.804;9.252;2024-03-23T17:20:59;3.38;;;1.20;;
70733;SDS011;58320;48.804;9.252;2024-03-23T17:23:29;3.72;;;1.30;;
70733;SDS011;58320;48.804;9.252;2024-03-23T17:25:56;3.03;;;0.90;;
70733;SDS011;58320;48.804;9.252;2024-03-23T17:28:22;3.80;;;1.55;;
70733;SDS011;58320;48.804;9.252;2024-03-23T17:30:48;3.63;;;1.42;;
70733;SDS011;58320;48.804;9.252;2024-03-23T17:33:14;3.95;;;1.40;;
70733;SDS011;58320;48.804;9.252;2024-03-23T17:35:41;5.47;;;1.20;;
70733;SDS011;58320;48.804;9.252;2024-03-23T17:38:08;4.38;;;1.10;;
70733;SDS011;58320;48.804;9.252;2024-03-23T17:40:34;4.90;;;1.30;;
70733;SDS011;58320;48.804;9.252;2024-03-23T17:43:00;4.47;;;1.40;;
70733;SDS011;58320;48.804;9.252;2024-03-23T17:45:26;3.10;;;1.83;;
70733;SDS011;58320;48.804;9.252;2024-03-23T17:47:52;4.20;;;1.90;;
70733;SDS011;58320;48.804;9.252;2024-03-23T17:50:18;4.27;;;1.70;;
70733;SDS011;58320;48.804;9.252;2024-03-23T17:52:44;3.30;;;1.43;;
70733;SDS011;58320;48.804;9.252;2024-03-23T17:55:11;2.70;;;1.10;;
70733;SDS011;58320;48.804;9.252;2024-03-23T17:57:36;3.00;;;1.42;;
70733;SDS011;58320;48.804;9.252;2024-03-23T18:00:02;4.03;;;1.60;;
70733;SDS011;58320;48.804;9.252;2024-03-23T18:02:31;3.33;;;1.58;;
70733;SDS011;58320;48.804;9.252;2024-03-23T18:04:58;3.75;;;1.30;;
70733;SDS011;58320;48.804;9.252;2024-03-23T18:07:24;2.80;;;1.48;;
70733;SDS011;58320;48.804;9.252;2024-03-23T18:09:51;3.88;;;1.40;;
70733;SDS011;58320;48.804;9.252;2024-03-23T18:12:17;2.87;;;1.47;;
70733;SDS011;58320;48.804;9.252;2024-03-23T18:14:43;3.17;;;1.27;;
70733;SDS011;58320;48.804;9.252;2024-03-23T18:17:09;3.28;;;1.60;;
70733;SDS011;58320;48.804;9.252;2024-03-23T18:19:35;2.70;;;1.10;;
70733;SDS011;58320;48.804;9.252;2024-03-23T18:22:01;3.67;;;1.80;;
70733;SDS011;58320;48.804;9.252;2024-03-23T18:24:26;5.63;;;2.07;;
70733;SDS011;58320;48.804;9.252;2024-03-23T18:26:52;4.13;;;1.63;;
70733;SDS011;58320;48.804;9.252;2024-03-23T18:29:20;4.40;;;1.90;;
70733;SDS011;58320;48.804;9.252;2024-03-23T18:31:46;5.67;;;1.80;;
70733;SDS011;58320;48.804;9.252;2024-03-23T18:34:11;3.92;;;2.00;;
70733;SDS011;58320;48.804;9.252;2024-03-23T18:36:37;3.17;;;1.73;;
70733;SDS011;58320;48.804;9.252;2024-03-23T18:39:03;3.83;;;1.65;;
70733;SDS011;58320;48.804;9.252;2024-03-23T18:41:30;4.35;;;1.77;;
70733;SDS011;58320;48.804;9.252;2024-03-23T18:43:56;5.53;;;2.97;;
70733;SDS011;58320;48.804;9.252;2024-03-23T18:46:23;6.03;;;3.60;;
70733;SDS011;58320;48.804;9.252;2024-03-23T18:48:49;4.22;;;2.22;;
70733;SDS011;58320;48.804;9.252;2024-03-23T18:51:15;5.35;;;2.17;;
70733;SDS011;58320;48.804;9.252;2024-03-23T18:53:41;4.50;;;2.03;;
70733;SDS011;58320;48.804;9.252;2024-03-23T18:56:07;4.37;;;2.00;;
70733;SDS011;58320;48.804;9.252;2024-03-23T18:58:32;4.90;;;2.20;;
70733;SDS011;58320;48.804;9.252;2024-03-23T19:01:02;3.23;;;1.73;;
70733;SDS011;58320;48.804;9.252;2024-03-23T19:03:30;4.30;;;1.77;;
70733;SDS011;58320;48.804;9.252;2024-03-23T19:05:57;5.80;;;2.00;;
70733;SDS011;58320;48.804;9.252;2024-03-23T19:08:25;4.72;;;1.95;;
70733;SDS011;58320;48.804;9.252;2024-03-23T19:10:54;4.63;;;1.97;;
70733;SDS011;58320;48.804;9.252;2024-03-23T19:13:24;6.72;;;1.98;;